createdAt,value
2023-04-28T00:01:39.320Z,10.23
2023-04-28T00:03:41.568Z,10.15
2023-04-28T00:05:43.671Z,9.23
2023-04-28T00:09:47.815Z,12.30
2023-04-28T00:11:49.679Z,7.50
2023-04-28T00:13:51.823Z,8.20
2023-04-28T00:17:56.198Z,10.38
2023-04-28T00:21:59.927Z,13.10
2023-04-28T00:24:01.881Z,10.98
2023-04-28T00:26:03.797Z,10.27
2023-04-28T00:28:05.696Z,12.73
2023-04-28T00:30:08.282Z,11.30
2023-04-28T00:32:10.213Z,10.95
2023-04-28T00:34:14.565Z,10.38
2023-04-28T00:36:16.622Z,11.55
2023-04-28T00:38:18.545Z,17.02
2023-04-28T00:40:21.192Z,9.98
2023-04-28T00:42:23.362Z,11.90
2023-04-28T00:44:25.220Z,10.65
2023-04-28T00:46:32.247Z,10.25
2023-04-28T00:48:34.196Z,11.82
2023-04-28T00:50:37.234Z,8.52
2023-04-28T00:52:39.755Z,13.50
2023-04-28T00:54:42.838Z,11.25
2023-04-28T00:56:44.835Z,11.55
2023-04-28T00:58:46.739Z,10.23
2023-04-28T01:00:48.647Z,11.52
2023-04-28T01:02:53.636Z,9.77
2023-04-28T01:04:57.287Z,10.52
2023-04-28T01:07:01.769Z,13.32
2023-04-28T01:09:05.765Z,14.60
2023-04-28T01:11:07.696Z,8.88
2023-04-28T01:13:09.563Z,12.32
2023-04-28T01:15:17.145Z,8.98
2023-04-28T01:17:19.114Z,10.35
2023-04-28T01:19:22.535Z,11.63
2023-04-28T01:21:34.317Z,12.20
2023-04-28T01:23:36.305Z,12.90
2023-04-28T01:25:38.184Z,11.07
2023-04-28T01:27:40.095Z,9.18
2023-04-28T01:29:42.048Z,11.05
2023-04-28T01:31:43.987Z,9.32
2023-04-28T01:33:45.991Z,12.45
2023-04-28T01:37:49.859Z,9.32
2023-04-28T01:41:53.503Z,13.77
2023-04-28T01:43:55.530Z,11.77
2023-04-28T01:45:57.483Z,9.95
2023-04-28T01:47:59.421Z,10.82
2023-04-28T01:50:01.791Z,9.13
2023-04-28T01:52:03.780Z,8.50
2023-04-28T01:54:05.768Z,12.55
2023-04-28T01:56:07.703Z,10.48
2023-04-28T01:58:09.563Z,9.05
2023-04-28T02:00:11.823Z,9.63
2023-04-28T02:02:13.824Z,9.40
2023-04-28T02:04:15.875Z,8.50
2023-04-28T02:06:18.080Z,8.13
2023-04-28T02:08:20.064Z,10.07
2023-04-28T02:10:21.950Z,13.00
2023-04-28T02:12:23.888Z,9.02
2023-04-28T02:14:25.975Z,9.95
2023-04-28T02:18:30.467Z,8.95
2023-04-28T02:20:33.282Z,10.25
2023-04-28T02:22:35.338Z,9.10
2023-04-28T02:24:37.779Z,8.52
2023-04-28T02:26:39.820Z,11.18
2023-04-28T02:30:43.817Z,10.40
2023-04-28T02:32:45.714Z,8.70
2023-04-28T02:36:49.962Z,11.43
2023-04-28T02:38:52.114Z,9.23
2023-04-28T02:43:08.610Z,10.88
2023-04-28T02:45:10.949Z,12.93
2023-04-28T02:47:12.885Z,12.52
2023-04-28T02:49:14.855Z,10.80
2023-04-28T02:51:16.711Z,10.60
2023-04-28T02:53:19.151Z,9.60
2023-04-28T02:55:24.334Z,10.55
2023-04-28T02:57:26.244Z,9.73
2023-04-28T02:59:28.215Z,15.50
2023-04-28T03:01:31.871Z,10.63
2023-04-28T03:03:33.842Z,9.32
2023-04-28T03:07:38.506Z,9.82
2023-04-28T03:11:44.247Z,11.63
2023-04-28T03:13:46.161Z,10.65
2023-04-28T03:15:48.095Z,11.02
2023-04-28T03:17:50.528Z,10.05
2023-04-28T03:19:52.526Z,9.30
2023-04-28T03:21:55.806Z,10.98
2023-04-28T03:23:57.850Z,8.93
2023-04-28T03:25:59.739Z,14.23
2023-04-28T03:28:01.631Z,10.90
2023-04-28T03:30:03.954Z,10.45
2023-04-28T03:32:06.294Z,12.90
2023-04-28T03:34:08.158Z,10.30
2023-04-28T03:36:10.030Z,9.45
2023-04-28T03:38:11.960Z,10.73
2023-04-28T03:40:13.836Z,10.25
2023-04-28T03:42:16.182Z,9.75
2023-04-28T03:44:18.252Z,14.73
2023-04-28T03:46:20.478Z,10.65
2023-04-28T03:48:23.142Z,10.35
2023-04-28T03:50:26.666Z,11.52
2023-04-28T03:52:28.775Z,11.95
2023-04-28T03:54:31.184Z,13.45
2023-04-28T03:56:33.478Z,9.80
2023-04-28T03:58:35.551Z,12.68
2023-04-28T04:02:39.709Z,8.53
2023-04-28T04:04:42.018Z,13.85
2023-04-28T04:06:44.063Z,15.57
2023-04-28T04:08:46.243Z,12.23
2023-04-28T04:12:49.848Z,12.80
2023-04-28T04:14:51.787Z,13.35
2023-04-28T04:16:55.496Z,10.35
2023-04-28T04:18:57.571Z,9.10
2023-04-28T04:20:59.594Z,9.63
2023-04-28T04:25:04.176Z,7.82
2023-04-28T04:29:07.911Z,7.03
2023-04-28T04:31:09.914Z,7.38
2023-04-28T04:35:13.860Z,8.63
2023-04-28T04:37:15.764Z,8.73
2023-04-28T04:39:17.780Z,7.75
2023-04-28T04:41:22.722Z,9.25
2023-04-28T04:43:24.635Z,7.38
2023-04-28T04:45:26.907Z,7.88
2023-04-28T04:47:28.873Z,10.60
2023-04-28T04:49:30.760Z,11.55
2023-04-28T04:51:33.033Z,10.68
2023-04-28T04:53:35.582Z,8.07
2023-04-28T04:55:37.525Z,8.27
2023-04-28T04:57:39.424Z,15.35
2023-04-28T04:59:41.280Z,6.88
2023-04-28T05:01:43.465Z,10.00
2023-04-28T05:03:45.558Z,10.90
2023-04-28T05:05:48.592Z,8.75
2023-04-28T05:07:50.622Z,8.75
2023-04-28T05:11:54.237Z,9.27
2023-04-28T05:13:56.119Z,9.70
2023-04-28T05:15:58.402Z,14.60
2023-04-28T05:18:00.697Z,8.00
2023-04-28T05:20:03.039Z,11.10
2023-04-28T05:22:05.290Z,16.40
2023-04-28T05:24:07.620Z,9.50
2023-04-28T05:26:09.517Z,11.00
2023-04-28T05:28:11.907Z,10.18
2023-04-28T05:30:15.710Z,10.65
2023-04-28T05:32:17.622Z,8.57
2023-04-28T05:34:19.763Z,10.60
2023-04-28T05:38:23.708Z,10.90
2023-04-28T05:42:27.537Z,8.02
2023-04-28T05:44:29.434Z,8.82
2023-04-28T05:46:32.073Z,10.13
2023-04-28T05:48:33.970Z,6.93
2023-04-28T05:50:37.706Z,8.70
2023-04-28T05:52:40.843Z,9.18
2023-04-28T05:54:43.010Z,10.38
2023-04-28T05:56:44.997Z,8.75
2023-04-28T05:58:48.063Z,8.88
2023-04-28T06:00:49.951Z,9.27
2023-04-28T06:02:51.901Z,10.27
2023-04-28T06:06:56.271Z,9.60
2023-04-28T06:08:58.257Z,9.32
2023-04-28T06:11:00.168Z,7.20
2023-04-28T06:13:04.884Z,9.77
2023-04-28T06:15:07.306Z,7.32
2023-04-28T06:17:09.544Z,8.05
2023-04-28T06:19:11.609Z,10.10
2023-04-28T06:23:15.307Z,10.83
2023-04-28T06:25:17.342Z,9.20
2023-04-28T06:29:23.351Z,7.38
2023-04-28T06:31:25.567Z,6.68
2023-04-28T06:33:27.512Z,8.38
2023-04-28T06:35:29.556Z,6.72
2023-04-28T06:39:33.430Z,7.63
2023-04-28T06:41:35.587Z,7.00
2023-04-28T06:45:39.791Z,7.07
2023-04-28T06:47:41.792Z,6.60
2023-04-28T06:49:44.732Z,10.25
2023-04-28T06:51:46.621Z,7.57
2023-04-28T06:53:51.391Z,5.85
2023-04-28T06:55:53.364Z,9.38
2023-04-28T06:57:55.399Z,7.72
2023-04-28T06:59:57.249Z,7.65
2023-04-28T07:01:59.285Z,8.00
2023-04-28T07:06:03.705Z,7.00
2023-04-28T07:08:06.730Z,7.20
2023-04-28T07:10:09.176Z,5.15
2023-04-28T07:12:11.036Z,7.85
2023-04-28T07:14:12.969Z,8.48
2023-04-28T07:16:15.152Z,8.30
2023-04-28T07:18:17.173Z,7.70
2023-04-28T07:20:19.284Z,5.85
2023-04-28T07:24:23.526Z,9.02
2023-04-28T07:26:25.641Z,6.75
2023-04-28T07:30:29.565Z,3.85
2023-04-28T07:34:33.427Z,6.13
2023-04-28T07:36:36.346Z,4.22
2023-04-28T07:38:39.503Z,4.82
2023-04-28T07:40:43.973Z,10.15
2023-04-28T07:42:45.990Z,6.90
2023-04-28T07:44:47.889Z,4.60
2023-04-28T07:46:52.155Z,5.28
2023-04-28T07:48:54.843Z,7.85
2023-04-28T07:50:56.762Z,9.93
2023-04-28T07:52:59.345Z,6.10
2023-04-28T07:55:02.492Z,3.50
2023-04-28T07:57:06.200Z,6.72
2023-04-28T07:59:08.150Z,5.10
2023-04-28T08:01:10.290Z,8.18
2023-04-28T08:05:14.718Z,4.22
2023-04-28T08:07:17.017Z,7.28
2023-04-28T08:11:22.425Z,3.65
2023-04-28T08:13:24.369Z,4.10
2023-04-28T08:15:27.641Z,6.53
2023-04-28T08:17:29.723Z,7.20
2023-04-28T08:21:34.226Z,6.83
2023-04-28T08:23:36.456Z,9.55
2023-04-28T08:25:38.395Z,8.90
2023-04-28T08:27:41.152Z,6.45
2023-04-28T08:29:43.049Z,4.80
2023-04-28T08:31:44.950Z,3.63
2023-04-28T08:33:50.114Z,5.18
2023-04-28T08:35:52.008Z,9.77
2023-04-28T08:37:53.951Z,4.72
2023-04-28T08:40:02.177Z,4.45
2023-04-28T08:42:07.581Z,3.20
2023-04-28T08:44:10.305Z,6.95
2023-04-28T08:46:14.675Z,7.72
2023-04-28T08:48:21.107Z,5.40
2023-04-28T08:50:23.673Z,4.82
2023-04-28T08:52:27.112Z,3.95
2023-04-28T08:54:32.251Z,9.25
2023-04-28T08:56:37.713Z,3.70
2023-04-28T08:58:40.047Z,4.07
2023-04-28T09:00:41.896Z,4.00
2023-04-28T09:02:44.214Z,6.15
2023-04-28T09:04:47.978Z,8.15
2023-04-28T09:06:49.987Z,6.38
2023-04-28T09:08:51.891Z,3.47
2023-04-28T09:11:08.313Z,6.88
2023-04-28T09:13:10.172Z,6.47
2023-04-28T09:15:25.087Z,6.60
2023-04-28T09:17:27.012Z,4.88
2023-04-28T09:19:36.362Z,5.32
2023-04-28T09:21:56.922Z,7.13
2023-04-28T09:23:58.870Z,3.85
2023-04-28T09:26:05.028Z,6.38
2023-04-28T09:28:22.985Z,5.93
2023-04-28T09:30:40.177Z,7.13
2023-04-28T09:32:42.209Z,6.25
2023-04-28T09:36:49.633Z,6.05
2023-04-28T09:38:51.572Z,9.48
2023-04-28T09:40:54.684Z,2.28
2023-04-28T09:42:57.106Z,5.03
2023-04-28T09:44:59.088Z,4.38
2023-04-28T09:47:01.435Z,3.67
2023-04-28T09:49:03.371Z,5.88
2023-04-28T09:51:07.834Z,4.70
2023-04-28T09:53:13.228Z,4.82
2023-04-28T09:55:15.946Z,5.30
2023-04-28T09:57:21.334Z,12.18
2023-04-28T09:59:23.698Z,7.88
2023-04-28T10:01:27.714Z,3.50
2023-04-28T10:03:31.088Z,7.45
2023-04-28T10:05:34.105Z,4.78
2023-04-28T10:07:36.994Z,6.68
2023-04-28T10:09:39.597Z,4.53
2023-04-28T10:11:42.381Z,6.20
2023-04-28T10:13:44.884Z,5.05
2023-04-28T10:15:48.900Z,6.30
2023-04-28T10:17:52.058Z,9.18
2023-04-28T10:19:54.861Z,6.43
2023-04-28T10:22:25.347Z,3.85
2023-04-28T10:24:31.216Z,7.88
2023-04-28T10:26:55.784Z,4.30
2023-04-28T10:28:58.025Z,6.13
2023-04-28T10:31:13.923Z,4.60
2023-04-28T10:33:16.179Z,6.32
2023-04-28T10:38:01.801Z,5.15
2023-04-28T10:40:32.228Z,9.00
2023-04-28T10:42:59.105Z,6.07
2023-04-28T10:45:01.107Z,4.68
2023-04-28T10:47:08.080Z,5.78
2023-04-28T10:49:09.961Z,6.28
2023-04-28T10:51:13.226Z,4.10
2023-04-28T10:53:15.265Z,2.72
2023-04-28T10:55:33.766Z,3.40
2023-04-28T10:57:36.665Z,2.88
2023-04-28T10:59:38.583Z,8.75
2023-04-28T11:01:41.886Z,3.75
2023-04-28T11:04:07.637Z,4.63
2023-04-28T11:06:26.918Z,2.40
2023-04-28T11:08:32.756Z,3.38
2023-04-28T11:11:12.102Z,5.18
2023-04-28T11:13:34.322Z,4.07
2023-04-28T11:15:36.346Z,5.07
2023-04-28T11:17:42.607Z,4.35
2023-04-28T11:19:45.802Z,6.43
2023-04-28T11:21:48.634Z,9.32
2023-04-28T11:23:50.843Z,5.03
2023-04-28T11:26:01.508Z,3.90
2023-04-28T11:28:08.613Z,5.85
2023-04-28T11:30:23.016Z,3.22
2023-04-28T11:32:29.795Z,3.22
2023-04-28T11:34:32.000Z,2.75
2023-04-28T11:38:47.069Z,3.88
2023-04-28T11:43:01.893Z,2.28
2023-04-28T11:45:04.719Z,3.67
2023-04-28T11:47:07.836Z,3.25
2023-04-28T11:49:09.825Z,8.82
2023-04-28T11:51:32.991Z,3.65
2023-04-28T11:53:44.967Z,3.45
2023-04-28T11:55:46.876Z,1.90
2023-04-28T11:57:48.746Z,5.43
2023-04-28T11:59:51.168Z,4.70
2023-04-28T12:01:54.577Z,5.78
2023-04-28T12:03:56.681Z,2.38
2023-04-28T12:08:00.998Z,3.05
2023-04-28T12:10:16.888Z,4.47
2023-04-28T12:12:45.240Z,6.78
2023-04-28T12:14:56.811Z,4.22
2023-04-28T12:16:59.003Z,6.03
2023-04-28T12:19:01.000Z,2.00
2023-04-28T12:21:03.653Z,2.92
2023-04-28T12:23:06.211Z,3.97
2023-04-28T12:25:12.726Z,3.50
2023-04-28T12:27:23.563Z,4.55
2023-04-28T12:29:42.209Z,2.45
2023-04-28T12:31:53.374Z,12.18
2023-04-28T12:33:55.389Z,3.78
2023-04-28T12:35:58.879Z,3.45
2023-04-28T12:38:00.867Z,1.30
2023-04-28T12:40:04.748Z,3.55
2023-04-28T12:42:07.979Z,5.93
2023-04-28T12:44:13.506Z,4.13
2023-04-28T12:46:15.900Z,2.08
2023-04-28T12:48:17.850Z,3.30
2023-04-28T12:50:19.941Z,3.92
2023-04-28T12:54:24.787Z,2.55
2023-04-28T12:56:27.547Z,3.63
2023-04-28T12:58:30.487Z,3.15
2023-04-28T13:00:32.399Z,5.63
2023-04-28T13:02:35.124Z,3.75
2023-04-28T13:04:37.760Z,4.28
2023-04-28T13:06:44.428Z,2.28
2023-04-28T13:08:46.637Z,3.78
2023-04-28T13:10:48.514Z,3.05
2023-04-28T13:12:50.709Z,5.90
2023-04-28T13:14:52.669Z,4.65
2023-04-28T13:16:54.598Z,7.95
2023-04-28T13:19:00.685Z,2.85
2023-04-28T13:21:02.960Z,7.97
2023-04-28T13:23:04.850Z,2.47
2023-04-28T13:25:07.094Z,1.60
2023-04-28T13:27:10.056Z,5.18
2023-04-28T13:29:12.435Z,5.88
2023-04-28T13:33:17.185Z,2.42
2023-04-28T13:35:20.268Z,2.28
2023-04-28T13:37:22.117Z,3.92
2023-04-28T13:39:24.169Z,3.72
2023-04-28T13:41:27.210Z,3.85
2023-04-28T13:43:29.384Z,2.67
2023-04-28T13:45:31.718Z,3.70
2023-04-28T13:47:33.715Z,7.50
2023-04-28T13:49:37.337Z,3.60
2023-04-28T13:51:39.282Z,3.00
2023-04-28T13:53:41.257Z,6.18
2023-04-28T13:57:45.779Z,6.13
2023-04-28T13:59:47.786Z,6.68
2023-04-28T14:01:49.677Z,4.13
2023-04-28T14:03:51.874Z,5.05
2023-04-28T14:05:55.950Z,3.53
2023-04-28T14:07:57.869Z,5.20
2023-04-28T14:10:00.121Z,6.93
2023-04-28T14:12:02.369Z,5.00
2023-04-28T14:14:05.014Z,2.40
2023-04-28T14:16:07.294Z,3.95
2023-04-28T14:18:09.607Z,4.57
2023-04-28T14:20:11.922Z,6.22
2023-04-28T14:22:13.790Z,5.72
2023-04-28T14:24:15.798Z,7.90
2023-04-28T14:26:17.665Z,2.63
2023-04-28T14:28:19.638Z,5.78
2023-04-28T14:30:22.346Z,8.02
2023-04-28T14:32:24.229Z,5.50
2023-04-28T14:34:26.118Z,6.72
2023-04-28T14:36:28.197Z,9.82
2023-04-28T14:40:33.447Z,6.10
2023-04-28T14:42:37.315Z,4.60
2023-04-28T14:44:39.263Z,5.45
2023-04-28T14:46:41.422Z,2.90
2023-04-28T14:48:43.712Z,4.60
2023-04-28T14:50:46.225Z,5.80
2023-04-28T14:52:48.183Z,6.20
2023-04-28T14:54:50.241Z,4.32
2023-04-28T14:58:54.400Z,4.67
2023-04-28T15:00:56.471Z,5.72
2023-04-28T15:05:00.527Z,2.47
2023-04-28T15:07:05.093Z,4.97
2023-04-28T15:09:07.036Z,6.47
2023-04-28T15:11:09.153Z,2.58
2023-04-28T15:15:14.555Z,3.85
2023-04-28T15:17:16.942Z,5.13
2023-04-28T15:19:18.847Z,2.90
2023-04-28T15:21:20.858Z,2.90
2023-04-28T15:25:25.053Z,3.58
2023-04-28T15:27:26.958Z,5.65
2023-04-28T15:29:29.026Z,4.18
2023-04-28T15:33:33.653Z,4.07
2023-04-28T15:35:35.805Z,2.85
2023-04-28T15:39:39.489Z,5.60
2023-04-28T15:41:41.533Z,4.65
2023-04-28T15:45:47.638Z,3.53
2023-04-28T15:47:50.928Z,2.65
2023-04-28T15:49:53.108Z,5.30
2023-04-28T15:51:55.111Z,3.53
2023-04-28T15:53:57.265Z,5.32
2023-04-28T15:55:59.663Z,4.15
2023-04-28T15:58:02.125Z,5.75
2023-04-28T16:00:04.678Z,2.63
2023-04-28T16:02:07.189Z,4.55
2023-04-28T16:04:09.337Z,3.90
2023-04-28T16:06:11.478Z,8.23
2023-04-28T16:08:13.801Z,4.78
2023-04-28T16:10:16.830Z,5.30
2023-04-28T16:12:18.884Z,3.33
2023-04-28T16:14:20.762Z,2.70
2023-04-28T16:16:23.299Z,1.92
2023-04-28T16:18:25.744Z,3.65
2023-04-28T16:20:28.142Z,3.53
2023-04-28T16:22:30.017Z,5.85
2023-04-28T16:24:32.403Z,4.95
2023-04-28T16:26:34.818Z,4.10
2023-04-28T16:28:36.709Z,4.40
2023-04-28T16:30:38.839Z,5.43
2023-04-28T16:34:43.030Z,3.92
2023-04-28T16:36:45.366Z,4.28
2023-04-28T16:38:47.767Z,5.68
2023-04-28T16:40:50.747Z,4.00
2023-04-28T16:42:52.610Z,2.90
2023-04-28T16:44:54.994Z,8.02
2023-04-28T16:47:00.116Z,4.00
2023-04-28T16:49:02.066Z,2.78
2023-04-28T16:51:08.278Z,7.25
2023-04-28T16:53:10.805Z,4.28
2023-04-28T16:55:12.830Z,7.60
2023-04-28T16:59:16.999Z,5.37
2023-04-28T17:01:18.881Z,5.57
2023-04-28T17:03:20.909Z,6.13
2023-04-28T17:07:25.675Z,3.50
2023-04-28T17:09:28.144Z,4.85
2023-04-28T17:11:30.157Z,3.13
2023-04-28T17:13:33.014Z,7.55
2023-04-28T17:15:34.971Z,5.68
2023-04-28T17:17:37.466Z,5.05
2023-04-28T17:19:40.229Z,5.20
2023-04-28T17:21:42.145Z,4.80
2023-04-28T17:23:44.050Z,7.40
2023-04-28T17:25:45.951Z,8.07
2023-04-28T17:27:47.954Z,9.02
2023-04-28T17:29:51.738Z,3.50
2023-04-28T17:31:54.318Z,4.72
2023-04-28T17:33:58.022Z,5.60
2023-04-28T17:36:02.708Z,4.10
2023-04-28T17:38:05.132Z,5.47
2023-04-28T17:40:07.990Z,7.43
2023-04-28T17:42:09.853Z,5.25
2023-04-28T17:44:11.786Z,4.47
2023-04-28T17:46:14.733Z,8.65
2023-04-28T17:48:16.648Z,6.22
2023-04-28T17:50:18.734Z,4.55
2023-04-28T17:52:20.846Z,4.75
2023-04-28T17:56:24.858Z,2.72
2023-04-28T18:02:32.312Z,5.57
2023-04-28T18:04:34.309Z,6.55
2023-04-28T18:06:36.201Z,5.05
2023-04-28T18:08:38.452Z,5.07
2023-04-28T18:10:40.438Z,4.10
2023-04-28T18:12:42.408Z,7.57
2023-04-28T18:14:44.497Z,8.70
2023-04-28T18:18:48.634Z,5.53
2023-04-28T18:20:58.034Z,3.25
2023-04-28T18:23:00.079Z,7.00
2023-04-28T18:25:02.204Z,5.75
2023-04-28T18:27:04.350Z,9.55
2023-04-28T18:31:07.982Z,6.03
2023-04-28T18:33:10.120Z,4.18
2023-04-28T18:37:13.893Z,2.22
2023-04-28T18:39:15.824Z,3.80
2023-04-28T18:41:18.633Z,2.80
2023-04-28T18:43:20.847Z,3.20
2023-04-28T18:45:22.768Z,8.25
2023-04-28T18:47:25.802Z,2.08
2023-04-28T18:49:28.340Z,4.15
2023-04-28T18:53:32.560Z,4.30
2023-04-28T18:55:34.530Z,5.82
2023-04-28T18:57:36.836Z,3.30
2023-04-28T18:59:38.767Z,4.22
2023-04-28T19:01:40.730Z,3.42
2023-04-28T19:03:43.082Z,5.07
2023-04-28T19:05:45.882Z,6.28
2023-04-28T19:07:47.729Z,7.30
2023-04-28T19:09:49.898Z,6.00
2023-04-28T19:11:51.964Z,5.10
2023-04-28T19:13:54.775Z,5.43
2023-04-28T19:15:56.827Z,4.05
2023-04-28T19:20:00.772Z,8.10
2023-04-28T19:22:03.097Z,8.73
2023-04-28T19:24:05.198Z,4.93
2023-04-28T19:28:11.670Z,3.10
2023-04-28T19:30:15.139Z,6.03
2023-04-28T19:32:17.125Z,5.97
2023-04-28T19:34:19.158Z,4.38
2023-04-28T19:36:21.885Z,8.75
2023-04-28T19:38:23.940Z,6.32
2023-04-28T19:44:30.635Z,6.35
2023-04-28T19:46:32.500Z,4.35
2023-04-28T19:48:34.676Z,8.00
2023-04-28T19:52:39.712Z,4.85
2023-04-28T19:54:43.440Z,6.50
2023-04-28T19:56:45.300Z,6.75
2023-04-28T19:58:47.191Z,5.82
2023-04-28T20:00:49.196Z,6.28
2023-04-28T20:02:51.572Z,6.65
2023-04-28T20:04:53.470Z,9.27
2023-04-28T20:06:55.370Z,6.88
2023-04-28T20:08:57.319Z,6.85
2023-04-28T20:10:59.236Z,7.30
2023-04-28T20:13:02.230Z,8.75
2023-04-28T20:15:04.499Z,6.47
2023-04-28T20:17:09.141Z,5.43
2023-04-28T20:19:11.095Z,9.05
2023-04-28T20:21:13.046Z,5.45
2023-04-28T20:23:15.077Z,5.85
2023-04-28T20:29:21.793Z,5.72
2023-04-28T20:31:23.800Z,7.60
2023-04-28T20:35:27.748Z,5.18
2023-04-28T20:39:33.068Z,8.43
2023-04-28T20:41:36.792Z,7.50
2023-04-28T20:43:39.243Z,4.97
2023-04-28T20:45:42.036Z,6.15
2023-04-28T20:47:43.976Z,7.20
2023-04-28T20:49:47.368Z,8.07
2023-04-28T20:51:49.256Z,5.85
2023-04-28T20:53:51.226Z,3.97
2023-04-28T20:55:53.149Z,4.63
2023-04-28T20:57:55.041Z,7.18
2023-04-28T20:59:56.962Z,6.38
2023-04-28T21:01:59.907Z,12.20
2023-04-28T21:04:01.983Z,12.65
2023-04-28T21:08:05.846Z,17.10
2023-04-28T21:10:08.368Z,6.15
2023-04-28T21:12:10.280Z,10.10
2023-04-28T21:14:12.390Z,12.88
2023-04-28T21:16:20.237Z,6.13
2023-04-28T21:18:23.156Z,8.02
2023-04-28T21:22:30.288Z,5.97
2023-04-28T21:24:32.800Z,19.80
2023-04-28T21:26:35.887Z,4.00
2023-04-28T21:28:39.997Z,8.20
2023-04-28T21:30:42.040Z,8.93
2023-04-28T21:32:44.239Z,3.83
2023-04-28T21:34:49.633Z,8.57
2023-04-28T21:36:51.661Z,8.73
2023-04-28T21:38:53.898Z,5.65
2023-04-28T21:40:55.918Z,6.53
2023-04-28T21:42:57.913Z,7.25
2023-04-28T21:45:00.188Z,6.00
2023-04-28T21:47:02.149Z,4.60
2023-04-28T21:49:04.010Z,4.53
2023-04-28T21:51:05.947Z,5.05
2023-04-28T21:53:07.830Z,5.68
2023-04-28T21:55:09.918Z,9.43
2023-04-28T21:59:13.620Z,4.78
2023-04-28T22:01:17.785Z,4.32
2023-04-28T22:03:20.033Z,5.72
2023-04-28T22:05:23.741Z,4.80
2023-04-28T22:07:25.854Z,6.13
2023-04-28T22:11:31.171Z,4.85
2023-04-28T22:13:33.107Z,4.70
2023-04-28T22:15:35.129Z,6.63
2023-04-28T22:19:39.419Z,3.47
2023-04-28T22:21:41.828Z,6.00
2023-04-28T22:23:43.775Z,5.75
2023-04-28T22:25:45.693Z,3.97
2023-04-28T22:27:47.701Z,4.70
2023-04-28T22:29:49.727Z,5.28
2023-04-28T22:31:52.529Z,4.35
2023-04-28T22:33:54.454Z,7.07
2023-04-28T22:35:56.296Z,5.45
2023-04-28T22:37:58.119Z,5.90
2023-04-28T22:40:00.142Z,5.43
2023-04-28T22:44:05.695Z,5.38
2023-04-28T22:46:08.105Z,3.80
2023-04-28T22:48:10.226Z,6.70
2023-04-28T22:50:12.652Z,5.60
2023-04-28T22:52:14.598Z,4.03
2023-04-28T22:54:16.549Z,4.75
2023-04-28T22:56:18.435Z,7.45
2023-04-28T22:58:20.752Z,4.22
2023-04-28T23:00:23.177Z,5.85
2023-04-28T23:02:25.405Z,3.58
2023-04-28T23:04:27.614Z,4.55
2023-04-28T23:06:29.719Z,3.92
2023-04-28T23:08:32.280Z,2.85
2023-04-28T23:10:34.211Z,4.65
2023-04-28T23:12:36.122Z,4.85
2023-04-28T23:14:38.259Z,4.93
2023-04-28T23:18:43.255Z,8.38
2023-04-28T23:20:48.748Z,6.15
2023-04-28T23:22:50.776Z,8.20
2023-04-28T23:24:52.680Z,4.00
2023-04-28T23:26:54.608Z,3.10
2023-04-28T23:28:56.476Z,5.38
2023-04-28T23:30:58.387Z,4.78
2023-04-28T23:33:00.293Z,9.88
2023-04-28T23:35:02.758Z,4.93
2023-04-28T23:37:04.684Z,4.28
2023-04-28T23:39:06.568Z,4.15
2023-04-28T23:41:09.146Z,4.30
2023-04-28T23:43:11.033Z,5.50
2023-04-28T23:45:13.150Z,5.53
2023-04-28T23:49:17.009Z,5.13
2023-04-28T23:51:18.937Z,6.03
2023-04-28T23:53:21.092Z,4.00
2023-04-28T23:57:24.685Z,5.00
2023-04-28T23:59:27.488Z,3.47
